Time,TemperatureF,DewpointF,PressureIn,WindDirection,WindDirectionDegrees,WindSpeedMPH,WindSpeedGustMPH,Humidity,HourlyPrecipIn,Conditions,Clouds,dailyrainin,SoftwareType,DateUTC
2013-01-13 00:02:00,46.0,44.0,29.81,ENE,62,4.0,6.0,93,0.00,,,0.20,,2013-01-13 00:02:00,
2013-01-13 00:11:00,46.0,44.0,29.81,ENE,62,4.0,6.0,93,0.00,,,0.20,,2013-01-13 00:11:00,
2013-01-13 00:22:00,45.0,43.0,29.81,NE,41,4.0,8.0,93,0.00,,,0.20,,2013-01-13 00:22:00,
2013-01-13 00:32:00,45.0,43.0,29.81,NNE,24,5.0,12.0,92,0.00,,,0.20,,2013-01-13 00:32:00,
2013-01-13 00:42:00,45.0,43.0,29.81,NNE,24,5.0,12.0,92,0.00,,,0.20,,2013-01-13 00:42:00,
2013-01-13 00:52:00,45.0,43.0,29.81,WSW,257,5.0,10.0,93,0.00,,,0.16,,2013-01-13 00:52:00,
2013-01-13 01:02:00,45.0,43.0,29.81,NNE,20,3.0,7.0,92,0.00,,,0.16,,2013-01-13 01:02:00,
2013-01-13 01:11:00,45.0,43.0,29.81,NNE,20,3.0,7.0,92,0.00,,,0.16,,2013-01-13 01:11:00,
2013-01-13 01:22:00,45.0,43.0,29.84,NNE,33,4.0,6.0,92,0.00,,,0.16,,2013-01-13 01:22:00,
2013-01-13 01:32:00,45.0,43.0,29.84,NNE,15,3.0,7.0,91,0.00,,,0.16,,2013-01-13 01:32:00,
2013-01-13 01:42:00,45.0,43.0,29.84,NNE,15,3.0,7.0,91,0.00,,,0.16,,2013-01-13 01:42:00,
2013-01-13 01:52:00,44.0,42.0,29.84,North,354,3.0,7.0,91,0.00,,,0.12,,2013-01-13 01:52:00,
2013-01-13 02:01:00,44.0,42.0,29.84,NE,48,3.0,7.0,91,0.00,,,0.12,,2013-01-13 02:01:00,
2013-01-13 02:12:00,44.0,42.0,29.84,NE,48,3.0,7.0,91,0.00,,,0.12,,2013-01-13 02:12:00,
2013-01-13 02:22:00,44.0,41.0,29.84,ESE,107,3.0,7.0,90,0.00,,,0.12,,2013-01-13 02:22:00,
2013-01-13 02:32:00,44.0,41.0,29.87,NNE,28,2.0,5.0,90,0.00,,,0.08,,2013-01-13 02:32:00,
2013-01-13 02:42:00,44.0,41.0,29.87,NNE,28,2.0,5.0,90,0.00,,,0.08,,2013-01-13 02:42:00,
2013-01-13 02:53:00,44.0,41.0,29.87,ENE,74,2.0,7.0,89,0.00,,,0.08,,2013-01-13 02:53:00,
2013-01-13 03:02:00,43.0,40.0,29.87,NE,42,3.0,6.0,88,0.00,,,0.08,,2013-01-13 03:02:00,
2013-01-13 03:11:00,43.0,40.0,29.87,NE,42,3.0,6.0,88,0.00,,,0.08,,2013-01-13 03:11:00,
2013-01-13 03:22:00,43.0,40.0,29.87,ENE,59,3.0,6.0,88,0.00,,,0.08,,2013-01-13 03:22:00,
2013-01-13 03:32:00,42.0,39.0,29.90,North,349,2.0,6.0,88,0.00,,,0.08,,2013-01-13 03:32:00,
2013-01-13 03:42:00,42.0,39.0,29.90,North,349,2.0,6.0,88,0.00,,,0.08,,2013-01-13 03:42:00,
2013-01-13 03:52:00,42.0,39.0,29.90,NNW,343,3.0,6.0,88,0.00,,,0.08,,2013-01-13 03:52:00,
2013-01-13 04:02:00,42.0,38.0,29.90,NNW,344,3.0,8.0,87,0.00,,,0.08,,2013-01-13 04:02:00,
2013-01-13 04:12:00,42.0,38.0,29.90,NNW,344,3.0,8.0,87,0.00,,,0.08,,2013-01-13 04:12:00,
2013-01-13 04:22:00,41.0,37.0,29.90,North,357,6.0,7.0,87,0.00,,,0.08,,2013-01-13 04:22:00,
2013-01-13 04:32:00,41.0,37.0,29.90,NNW,329,4.0,6.0,87,0.00,,,0.08,,2013-01-13 04:32:00,
2013-01-13 04:42:00,41.0,37.0,29.90,NNW,329,4.0,6.0,87,0.00,,,0.08,,2013-01-13 04:42:00,
2013-01-13 04:52:00,41.0,37.0,29.90,NNW,338,4.0,6.0,87,0.00,,,0.08,,2013-01-13 04:52:00,
2013-01-13 05:03:00,40.0,36.0,29.93,North,359,3.0,5.0,87,0.00,,,0.08,,2013-01-13 05:03:00,
2013-01-13 05:12:00,40.0,36.0,29.93,North,359,3.0,5.0,87,0.00,,,0.08,,2013-01-13 05:12:00,
2013-01-13 05:22:00,40.0,36.0,29.93,NNW,337,5.0,6.0,87,0.00,,,0.08,,2013-01-13 05:22:00,
2013-01-13 05:32:00,40.0,37.0,29.93,NW,318,5.0,7.0,88,0.00,,,0.08,,2013-01-13 05:32:00,
2013-01-13 05:42:00,40.0,37.0,29.93,NW,318,5.0,7.0,88,0.00,,,0.08,,2013-01-13 05:42:00,
2013-01-13 05:52:00,39.0,36.0,29.93,NNW,338,7.0,9.0,90,0.00,,,0.08,,2013-01-13 05:52:00,
2013-01-13 06:02:00,39.0,36.0,29.93,NW,323,5.0,8.0,90,0.00,,,0.08,,2013-01-13 06:02:00,
2013-01-13 06:12:00,39.0,36.0,29.93,NW,318,5.0,7.0,90,0.00,,,0.08,,2013-01-13 06:12:00,
2013-01-13 06:22:00,39.0,36.0,29.93,NW,318,5.0,7.0,90,0.00,,,0.08,,2013-01-13 06:22:00,
2013-01-13 06:32:00,39.0,37.0,29.93,NNW,348,5.0,9.0,91,0.00,,,0.08,,2013-01-13 06:32:00,
2013-01-13 06:42:00,39.0,37.0,29.93,NNW,348,5.0,9.0,91,0.00,,,0.08,,2013-01-13 06:42:00,
2013-01-13 06:52:00,39.0,37.0,29.96,NNW,348,5.0,7.0,91,0.00,,,0.04,,2013-01-13 06:52:00,
2013-01-13 07:02:00,38.0,36.0,29.96,NNW,332,6.0,7.0,91,0.00,,,0.04,,2013-01-13 07:02:00,
2013-01-13 07:11:00,38.0,36.0,29.96,NNW,332,6.0,7.0,91,0.00,,,0.04,,2013-01-13 07:11:00,
2013-01-13 07:22:00,38.0,36.0,29.96,NNW,338,4.0,6.0,92,0.00,,,0.04,,2013-01-13 07:22:00,
2013-01-13 07:32:00,38.0,36.0,29.96,NNW,338,5.0,7.0,93,0.00,,,0.04,,2013-01-13 07:32:00,
2013-01-13 07:42:00,38.0,36.0,29.96,NNW,338,5.0,7.0,93,0.00,,,0.04,,2013-01-13 07:42:00,
2013-01-13 07:52:00,38.0,36.0,29.96,NNW,338,5.0,7.0,92,0.00,,,0.04,,2013-01-13 07:52:00,
2013-01-13 08:01:00,38.0,36.0,29.96,NNW,342,7.0,9.0,92,0.00,,,0.04,,2013-01-13 08:01:00,
2013-01-13 08:11:00,38.0,36.0,29.96,NNW,342,7.0,9.0,92,0.00,,,0.04,,2013-01-13 08:11:00,
2013-01-13 08:22:00,38.0,36.0,29.99,North,354,5.0,6.0,91,0.00,,,0.04,,2013-01-13 08:22:00,
2013-01-13 08:32:00,38.0,35.0,29.99,NW,315,6.0,8.0,90,0.00,,,0.04,,2013-01-13 08:32:00,
2013-01-13 08:42:00,38.0,35.0,29.99,NW,315,6.0,8.0,90,0.00,,,0.04,,2013-01-13 08:42:00,
2013-01-13 08:52:00,38.0,35.0,29.99,North,351,9.0,13.0,89,0.00,,,0.04,,2013-01-13 08:52:00,
2013-01-13 09:02:00,38.0,34.0,29.99,North,351,9.0,13.0,86,0.00,,,0.04,,2013-01-13 09:02:00,
2013-01-13 09:11:00,39.0,35.0,29.99,NNE,24,8.0,13.0,84,0.00,,,0.04,,2013-01-13 09:11:00,
2013-01-13 09:22:00,39.0,35.0,29.99,NNE,24,8.0,13.0,84,0.00,,,0.04,,2013-01-13 09:22:00,
2013-01-13 09:32:00,39.0,35.0,30.02,NNW,338,7.0,22.0,84,0.00,,,0.04,,2013-01-13 09:32:00,
2013-01-13 09:42:00,39.0,35.0,30.02,NNW,338,7.0,22.0,84,0.00,,,0.04,,2013-01-13 09:42:00,
2013-01-13 09:52:00,40.0,34.0,30.02,NW,311,6.0,10.0,78,0.00,,,0.04,,2013-01-13 09:52:00,
2013-01-13 10:02:00,42.0,34.0,30.02,NNW,348,5.0,12.0,74,0.00,,,0.04,,2013-01-13 10:02:00,
2013-01-13 10:11:00,42.0,34.0,30.02,NNW,348,5.0,12.0,74,0.00,,,0.04,,2013-01-13 10:11:00,
2013-01-13 10:22:00,42.0,31.0,30.05,NNW,347,6.0,9.0,66,0.00,,,0.04,,2013-01-13 10:22:00,
2013-01-13 10:32:00,44.0,33.0,30.05,NNW,348,3.0,8.0,65,0.00,,,0.04,,2013-01-13 10:32:00,
2013-01-13 10:42:00,44.0,33.0,30.05,NNW,348,3.0,8.0,65,0.00,,,0.04,,2013-01-13 10:42:00,
2013-01-13 10:52:00,43.0,31.0,30.05,North,4,5.0,8.0,63,0.00,,,0.04,,2013-01-13 10:52:00,
2013-01-13 11:02:00,44.0,31.0,30.05,NNW,333,6.0,7.0,61,0.00,,,0.04,,2013-01-13 11:02:00,
2013-01-13 11:11:00,44.0,31.0,30.05,NNW,333,6.0,7.0,61,0.00,,,0.04,,2013-01-13 11:11:00,
2013-01-13 11:22:00,44.0,28.0,30.05,NNW,338,6.0,9.0,54,0.00,,,0.04,,2013-01-13 11:22:00,
2013-01-13 11:32:00,45.0,31.0,30.05,NW,309,3.0,6.0,58,0.00,,,0.04,,2013-01-13 11:32:00,
2013-01-13 11:42:00,45.0,31.0,30.05,NW,309,3.0,6.0,58,0.00,,,0.04,,2013-01-13 11:42:00,
2013-01-13 11:52:00,46.0,30.0,30.05,NNW,338,2.0,6.0,53,0.00,,,0.04,,2013-01-13 11:52:00,
2013-01-13 12:02:00,46.0,28.0,30.05,NNE,19,3.0,7.0,50,0.00,,,0.04,,2013-01-13 12:02:00,
2013-01-13 12:11:00,46.0,28.0,30.05,NNE,19,3.0,7.0,50,0.00,,,0.04,,2013-01-13 12:11:00,
2013-01-13 12:22:00,46.0,28.0,30.05,NNW,338,5.0,8.0,49,0.00,,,0.04,,2013-01-13 12:22:00,
2013-01-13 12:32:00,46.0,28.0,30.05,NNW,335,4.0,7.0,49,0.00,,,0.04,,2013-01-13 12:32:00,
2013-01-13 12:42:00,46.0,28.0,30.05,NNW,335,4.0,7.0,49,0.00,,,0.04,,2013-01-13 12:42:00,
2013-01-13 12:52:00,45.0,26.0,30.05,North,358,2.0,7.0,47,0.00,,,0.04,,2013-01-13 12:52:00,
2013-01-13 13:02:00,45.0,27.0,30.05,NNW,331,2.0,3.0,49,0.00,,,0.04,,2013-01-13 13:02:00,
2013-01-13 13:11:00,45.0,27.0,30.05,NNW,331,2.0,3.0,49,0.00,,,0.04,,2013-01-13 13:11:00,
2013-01-13 13:22:00,45.0,25.0,30.08,NNW,341,3.0,5.0,46,0.00,,,0.04,,2013-01-13 13:22:00,
2013-01-13 13:32:00,44.0,26.0,30.05,North,349,3.0,7.0,48,0.00,,,0.04,,2013-01-13 13:32:00,
2013-01-13 13:42:00,44.0,26.0,30.05,North,349,3.0,7.0,48,0.00,,,0.04,,2013-01-13 13:42:00,
2013-01-13 13:53:00,43.0,25.0,30.05,NNW,328,5.0,6.0,48,0.00,,,0.04,,2013-01-13 13:53:00,
2013-01-13 14:02:00,43.0,25.0,30.05,NW,318,5.0,7.0,49,0.00,,,0.04,,2013-01-13 14:02:00,
2013-01-13 14:12:00,43.0,25.0,30.05,NW,318,5.0,7.0,49,0.00,,,0.04,,2013-01-13 14:12:00,
2013-01-13 14:22:00,43.0,26.0,30.05,NNW,338,5.0,6.0,50,0.00,,,0.04,,2013-01-13 14:22:00,
2013-01-13 14:32:00,44.0,27.0,30.05,North,349,0.0,3.0,50,0.00,,,0.04,,2013-01-13 14:32:00,
2013-01-13 14:42:00,44.0,27.0,30.05,North,349,0.0,3.0,50,0.00,,,0.04,,2013-01-13 14:42:00,
2013-01-13 14:53:00,44.0,26.0,30.05,NNW,335,1.0,6.0,49,0.00,,,0.04,,2013-01-13 14:53:00,
2013-01-13 15:02:00,45.0,25.0,30.05,North,350,4.0,6.0,45,0.00,,,0.04,,2013-01-13 15:02:00,
2013-01-13 15:12:00,45.0,25.0,30.05,North,350,4.0,6.0,45,0.00,,,0.04,,2013-01-13 15:12:00,
2013-01-13 15:22:00,46.0,26.0,30.05,NW,315,3.0,5.0,46,0.00,,,0.04,,2013-01-13 15:22:00,
2013-01-13 15:33:00,46.0,26.0,30.08,WNW,292,2.0,5.0,46,0.00,,,0.04,,2013-01-13 15:33:00,
2013-01-13 15:42:00,46.0,26.0,30.08,WNW,292,2.0,5.0,46,0.00,,,0.04,,2013-01-13 15:42:00,
2013-01-13 15:52:00,44.0,23.0,30.08,NNW,338,3.0,7.0,43,0.00,,,0.04,,2013-01-13 15:52:00,
2013-01-13 16:02:00,43.0,23.0,30.08,NNW,338,4.0,6.0,45,0.00,,,0.04,,2013-01-13 16:02:00,
2013-01-13 16:11:00,43.0,23.0,30.08,NNW,338,4.0,6.0,45,0.00,,,0.04,,2013-01-13 16:11:00,
2013-01-13 16:22:00,43.0,25.0,30.08,NNW,334,4.0,5.0,48,0.00,,,0.04,,2013-01-13 16:22:00,
2013-01-13 16:33:00,42.0,24.0,30.08,NNW,328,5.0,8.0,48,0.00,,,0.04,,2013-01-13 16:33:00,
2013-01-13 16:42:00,42.0,24.0,30.08,NNW,328,5.0,8.0,48,0.00,,,0.04,,2013-01-13 16:42:00,
2013-01-13 16:53:00,42.0,24.0,30.08,NNW,338,4.0,6.0,48,0.00,,,0.04,,2013-01-13 16:53:00,
2013-01-13 17:02:00,41.0,23.0,30.08,NNW,338,4.0,5.0,48,0.00,,,0.04,,2013-01-13 17:02:00,
2013-01-13 17:12:00,41.0,23.0,30.08,NNW,338,4.0,5.0,48,0.00,,,0.04,,2013-01-13 17:12:00,
2013-01-13 17:22:00,41.0,23.0,30.08,NW,321,1.0,6.0,48,0.00,,,0.04,,2013-01-13 17:22:00,
2013-01-13 17:32:00,41.0,23.0,30.08,NW,312,0.0,0.0,49,0.00,,,0.04,,2013-01-13 17:32:00,
2013-01-13 17:42:00,41.0,23.0,30.08,NW,312,0.0,0.0,49,0.00,,,0.04,,2013-01-13 17:42:00,
2013-01-13 17:53:00,40.0,23.0,30.08,West,270,0.0,0.0,51,0.00,,,0.04,,2013-01-13 17:53:00,
2013-01-13 18:02:00,40.0,24.0,30.11,WNW,292,0.0,0.0,52,0.00,,,0.04,,2013-01-13 18:02:00,
2013-01-13 18:11:00,40.0,24.0,30.11,WNW,292,0.0,0.0,52,0.00,,,0.04,,2013-01-13 18:11:00,
2013-01-13 18:22:00,40.0,25.0,30.11,WNW,292,0.0,0.0,54,0.00,,,0.04,,2013-01-13 18:22:00,
2013-01-13 18:32:00,40.0,26.0,30.11,WNW,292,0.0,0.0,56,0.00,,,0.04,,2013-01-13 18:32:00,
2013-01-13 18:42:00,40.0,26.0,30.11,WNW,292,0.0,0.0,56,0.00,,,0.04,,2013-01-13 18:42:00,
2013-01-13 18:53:00,40.0,26.0,30.11,WNW,292,0.0,0.0,57,0.00,,,0.04,,2013-01-13 18:53:00,
2013-01-13 19:02:00,40.0,26.0,30.11,West,270,0.0,0.0,58,0.00,,,0.04,,2013-01-13 19:02:00,
2013-01-13 19:11:00,40.0,26.0,30.11,West,270,0.0,0.0,58,0.00,,,0.04,,2013-01-13 19:11:00,
2013-01-13 19:22:00,40.0,26.0,30.11,West,270,0.0,0.0,58,0.00,,,0.04,,2013-01-13 19:22:00,
2013-01-13 19:32:00,40.0,27.0,30.11,West,270,0.0,0.0,59,0.00,,,0.04,,2013-01-13 19:32:00,
2013-01-13 19:42:00,40.0,27.0,30.11,West,270,0.0,0.0,59,0.00,,,0.04,,2013-01-13 19:42:00,
2013-01-13 19:53:00,40.0,27.0,30.11,West,270,0.0,0.0,60,0.00,,,0.04,,2013-01-13 19:53:00,
2013-01-13 20:02:00,40.0,28.0,30.11,West,270,0.0,0.0,62,0.00,,,0.04,,2013-01-13 20:02:00,
2013-01-13 20:11:00,40.0,28.0,30.11,West,270,0.0,0.0,62,0.00,,,0.04,,2013-01-13 20:11:00,
2013-01-13 20:22:00,40.0,29.0,30.11,West,270,0.0,0.0,65,0.00,,,0.04,,2013-01-13 20:22:00,
2013-01-13 20:32:00,40.0,30.0,30.08,WSW,248,0.0,0.0,66,0.00,,,0.04,,2013-01-13 20:32:00,
2013-01-13 20:42:00,40.0,30.0,30.08,WSW,248,0.0,0.0,66,0.00,,,0.04,,2013-01-13 20:42:00,
2013-01-13 20:53:00,40.0,30.0,30.08,WSW,248,0.0,0.0,68,0.00,,,0.04,,2013-01-13 20:53:00,
2013-01-13 21:02:00,40.0,30.0,30.11,WSW,248,0.0,0.0,68,0.00,,,0.04,,2013-01-13 21:02:00,
2013-01-13 21:12:00,40.0,30.0,30.11,WSW,248,0.0,0.0,68,0.00,,,0.04,,2013-01-13 21:12:00,
2013-01-13 21:22:00,40.0,31.0,30.08,WSW,248,0.0,0.0,69,0.00,,,0.04,,2013-01-13 21:22:00,
2013-01-13 21:32:00,40.0,31.0,30.08,WSW,243,2.0,2.0,70,0.00,,,0.04,,2013-01-13 21:32:00,
2013-01-13 21:42:00,40.0,31.0,30.08,WSW,243,2.0,2.0,70,0.00,,,0.04,,2013-01-13 21:42:00,
2013-01-13 21:53:00,40.0,32.0,30.08,WSW,248,1.0,2.0,72,0.00,,,0.04,,2013-01-13 21:53:00,
2013-01-13 22:02:00,40.0,32.0,30.08,WSW,247,2.0,3.0,74,0.00,,,0.04,,2013-01-13 22:02:00,
2013-01-13 22:11:00,40.0,32.0,30.08,WSW,247,2.0,3.0,74,0.00,,,0.04,,2013-01-13 22:11:00,
2013-01-13 22:22:00,40.0,32.0,30.08,SW,215,2.0,3.0,74,0.00,,,0.04,,2013-01-13 22:22:00,
2013-01-13 22:32:00,40.0,32.0,30.08,WSW,248,1.0,2.0,74,0.00,,,0.00,,2013-01-13 22:32:00,
2013-01-13 22:42:00,40.0,32.0,30.08,WSW,248,1.0,2.0,74,0.00,,,0.00,,2013-01-13 22:42:00,
2013-01-13 22:52:00,40.0,33.0,30.08,SW,229,2.0,5.0,75,0.00,,,0.00,,2013-01-13 22:52:00,
2013-01-13 23:02:00,41.0,34.0,30.08,South,183,2.0,5.0,77,0.00,,,0.00,,2013-01-13 23:02:00,
2013-01-13 23:12:00,41.0,34.0,30.08,South,183,2.0,5.0,77,0.00,,,0.00,,2013-01-13 23:12:00,
2013-01-13 23:22:00,41.0,35.0,30.05,SSW,201,4.0,5.0,78,0.00,,,0.00,,2013-01-13 23:22:00,
2013-01-13 23:32:00,41.0,36.0,30.05,SW,214,2.0,3.0,81,0.00,,,0.00,,2013-01-13 23:32:00,
2013-01-13 23:42:00,41.0,36.0,30.05,SW,214,2.0,3.0,81,0.00,,,0.00,,2013-01-13 23:42:00,
2013-01-13 23:53:00,42.0,37.0,30.05,SW,232,1.0,3.0,83,0.00,,,0.00,,2013-01-13 23:53:00,